sensor_id;sensor_type;location;lat;lon;timestamp;P1;durP1;ratioP1;P2;durP2;ratioP2
48881;SDS011;57063;51.406;-2.402;2023-03-01T02:37:41;1.65;;;1.00;;
48881;SDS011;57063;51.406;-2.402;2023-03-01T02:40:23;1.73;;;1.20;;
48881;SDS011;57063;51.406;-2.402;2023-03-01T02:43:20;1.48;;;1.00;;
48881;SDS011;57063;51.406;-2.402;2023-03-01T02:49:16;2.35;;;1.20;;
48881;SDS011;57063;51.406;-2.402;2023-03-01T02:55:01;3.22;;;1.40;;
48881;SDS011;57063;51.406;-2.402;2023-03-01T03:23:50;3.15;;;1.95;;
48881;SDS011;57063;51.406;-2.402;2023-03-01T03:27:03;3.17;;;1.73;;
48881;SDS011;57063;51.406;-2.402;2023-03-01T03:29:53;5.07;;;2.03;;
48881;SDS011;57063;51.406;-2.402;2023-03-01T03:32:47;6.10;;;1.67;;
48881;SDS011;57063;51.406;-2.402;2023-03-01T03:35:30;1.95;;;1.45;;
48881;SDS011;57063;51.406;-2.402;2023-03-01T03:38:10;4.60;;;2.08;;
48881;SDS011;57063;51.406;-2.402;2023-03-01T03:43:51;4.50;;;1.70;;
48881;SDS011;57063;51.406;-2.402;2023-03-01T03:46:50;4.32;;;1.50;;
48881;SDS011;57063;51.406;-2.402;2023-03-01T03:49:30;4.93;;;1.50;;
48881;SDS011;57063;51.406;-2.402;2023-03-01T03:51:59;4.30;;;1.90;;
48881;SDS011;57063;51.406;-2.402;2023-03-01T03:54:27;3.38;;;1.73;;
48881;SDS011;57063;51.406;-2.402;2023-03-01T03:57:04;2.58;;;1.55;;
48881;SDS011;57063;51.406;-2.402;2023-03-01T03:59:35;5.53;;;1.70;;
48881;SDS011;57063;51.406;-2.402;2023-03-01T04:02:11;3.72;;;1.73;;
48881;SDS011;57063;51.406;-2.402;2023-03-01T04:04:52;3.33;;;1.52;;
48881;SDS011;57063;51.406;-2.402;2023-03-01T04:07:35;3.58;;;1.95;;
48881;SDS011;57063;51.406;-2.402;2023-03-01T04:10:34;7.32;;;2.47;;
48881;SDS011;57063;51.406;-2.402;2023-03-01T04:13:38;4.88;;;2.47;;
48881;SDS011;57063;51.406;-2.402;2023-03-01T04:16:20;4.80;;;2.03;;
48881;SDS011;57063;51.406;-2.402;2023-03-01T04:19:10;5.45;;;2.50;;
48881;SDS011;57063;51.406;-2.402;2023-03-01T04:21:48;3.13;;;2.13;;
48881;SDS011;57063;51.406;-2.402;2023-03-01T04:24:34;4.80;;;2.28;;
48881;SDS011;57063;51.406;-2.402;2023-03-01T04:27:17;6.00;;;2.55;;
48881;SDS011;57063;51.406;-2.402;2023-03-01T04:29:54;6.05;;;2.65;;
48881;SDS011;57063;51.406;-2.402;2023-03-01T04:32:38;4.40;;;2.10;;
48881;SDS011;57063;51.406;-2.402;2023-03-01T04:35:11;8.15;;;2.40;;
48881;SDS011;57063;51.406;-2.402;2023-03-01T04:38:14;4.40;;;2.10;;
48881;SDS011;57063;51.406;-2.402;2023-03-01T04:44:18;3.58;;;2.15;;
48881;SDS011;57063;51.406;-2.402;2023-03-01T04:46:58;4.50;;;2.35;;
48881;SDS011;57063;51.406;-2.402;2023-03-01T04:53:12;3.47;;;2.03;;
48881;SDS011;57063;51.406;-2.402;2023-03-01T04:55:47;5.70;;;2.10;;
48881;SDS011;57063;51.406;-2.402;2023-03-01T04:58:27;7.97;;;2.13;;
48881;SDS011;57063;51.406;-2.402;2023-03-01T05:01:39;5.18;;;2.38;;
48881;SDS011;57063;51.406;-2.402;2023-03-01T05:04:30;4.43;;;1.90;;
48881;SDS011;57063;51.406;-2.402;2023-03-01T05:07:30;4.22;;;2.30;;
48881;SDS011;57063;51.406;-2.402;2023-03-01T05:10:26;3.10;;;2.33;;
48881;SDS011;57063;51.406;-2.402;2023-03-01T05:16:27;4.50;;;2.20;;
48881;SDS011;57063;51.406;-2.402;2023-03-01T05:19:01;5.55;;;2.25;;
48881;SDS011;57063;51.406;-2.402;2023-03-01T05:22:07;3.22;;;2.00;;
48881;SDS011;57063;51.406;-2.402;2023-03-01T05:24:59;3.47;;;2.03;;
48881;SDS011;57063;51.406;-2.402;2023-03-01T05:27:49;6.20;;;2.58;;
48881;SDS011;57063;51.406;-2.402;2023-03-01T05:33:47;9.80;;;2.60;;
48881;SDS011;57063;51.406;-2.402;2023-03-01T05:36:34;4.72;;;1.90;;
48881;SDS011;57063;51.406;-2.402;2023-03-01T06:21:00;5.68;;;2.20;;
48881;SDS011;57063;51.406;-2.402;2023-03-01T06:23:35;5.65;;;2.90;;
48881;SDS011;57063;51.406;-2.402;2023-03-01T06:26:17;3.85;;;2.88;;
48881;SDS011;57063;51.406;-2.402;2023-03-01T06:29:06;4.60;;;2.53;;
48881;SDS011;57063;51.406;-2.402;2023-03-01T06:31:35;4.28;;;2.33;;
48881;SDS011;57063;51.406;-2.402;2023-03-01T06:34:03;5.47;;;2.60;;
48881;SDS011;57063;51.406;-2.402;2023-03-01T06:36:29;4.20;;;2.58;;
48881;SDS011;57063;51.406;-2.402;2023-03-01T06:38:55;3.22;;;1.98;;
48881;SDS011;57063;51.406;-2.402;2023-03-01T06:41:20;3.17;;;2.35;;
48881;SDS011;57063;51.406;-2.402;2023-03-01T06:43:46;4.78;;;2.30;;
48881;SDS011;57063;51.406;-2.402;2023-03-01T06:46:12;4.13;;;2.25;;
48881;SDS011;57063;51.406;-2.402;2023-03-01T06:48:37;4.15;;;2.50;;
48881;SDS011;57063;51.406;-2.402;2023-03-01T06:51:03;3.22;;;2.30;;
48881;SDS011;57063;51.406;-2.402;2023-03-01T06:53:29;3.78;;;2.15;;
48881;SDS011;57063;51.406;-2.402;2023-03-01T06:55:55;4.00;;;2.15;;
48881;SDS011;57063;51.406;-2.402;2023-03-01T06:58:21;5.85;;;2.60;;
48881;SDS011;57063;51.406;-2.402;2023-03-01T07:00:47;4.18;;;2.53;;
48881;SDS011;57063;51.406;-2.402;2023-03-01T07:03:13;4.75;;;2.20;;
48881;SDS011;57063;51.406;-2.402;2023-03-01T07:05:38;3.22;;;2.40;;
48881;SDS011;57063;51.406;-2.402;2023-03-01T07:08:06;2.95;;;2.17;;
48881;SDS011;57063;51.406;-2.402;2023-03-01T07:10:32;4.88;;;2.72;;
48881;SDS011;57063;51.406;-2.402;2023-03-01T07:12:58;5.80;;;2.60;;
48881;SDS011;57063;51.406;-2.402;2023-03-01T07:15:24;4.10;;;2.25;;
48881;SDS011;57063;51.406;-2.402;2023-03-01T07:17:55;3.58;;;2.50;;
48881;SDS011;57063;51.406;-2.402;2023-03-01T07:20:50;3.00;;;2.03;;
48881;SDS011;57063;51.406;-2.402;2023-03-01T07:24:07;3.60;;;2.05;;
48881;SDS011;57063;51.406;-2.402;2023-03-01T07:37:15;3.97;;;1.77;;
48881;SDS011;57063;51.406;-2.402;2023-03-01T07:43:23;3.78;;;1.58;;
48881;SDS011;57063;51.406;-2.402;2023-03-01T07:52:18;4.60;;;1.60;;
48881;SDS011;57063;51.406;-2.402;2023-03-01T07:54:44;3.22;;;1.52;;
48881;SDS011;57063;51.406;-2.402;2023-03-01T07:57:13;6.18;;;1.50;;
48881;SDS011;57063;51.406;-2.402;2023-03-01T07:59:38;2.00;;;1.35;;
48881;SDS011;57063;51.406;-2.402;2023-03-01T08:02:54;6.50;;;1.83;;
48881;SDS011;57063;51.406;-2.402;2023-03-01T08:05:26;3.70;;;1.20;;
48881;SDS011;57063;51.406;-2.402;2023-03-01T08:07:52;6.05;;;1.48;;
48881;SDS011;57063;51.406;-2.402;2023-03-01T08:10:23;3.58;;;1.40;;
48881;SDS011;57063;51.406;-2.402;2023-03-01T08:12:51;4.28;;;1.90;;
48881;SDS011;57063;51.406;-2.402;2023-03-01T08:15:17;3.40;;;1.60;;
48881;SDS011;57063;51.406;-2.402;2023-03-01T08:17:44;5.75;;;1.40;;
48881;SDS011;57063;51.406;-2.402;2023-03-01T08:20:09;3.85;;;1.50;;
48881;SDS011;57063;51.406;-2.402;2023-03-01T08:22:37;4.05;;;1.60;;
48881;SDS011;57063;51.406;-2.402;2023-03-01T08:25:04;2.75;;;1.27;;
48881;SDS011;57063;51.406;-2.402;2023-03-01T08:27:29;2.65;;;1.23;;
48881;SDS011;57063;51.406;-2.402;2023-03-01T08:29:55;6.88;;;1.40;;
48881;SDS011;57063;51.406;-2.402;2023-03-01T08:32:20;2.10;;;1.35;;
48881;SDS011;57063;51.406;-2.402;2023-03-01T08:34:46;3.53;;;0.95;;
48881;SDS011;57063;51.406;-2.402;2023-03-01T08:37:12;2.38;;;1.20;;
48881;SDS011;57063;51.406;-2.402;2023-03-01T08:39:38;2.22;;;1.10;;
48881;SDS011;57063;51.406;-2.402;2023-03-01T08:42:03;4.78;;;0.85;;
48881;SDS011;57063;51.406;-2.402;2023-03-01T08:44:29;2.47;;;1.05;;
48881;SDS011;57063;51.406;-2.402;2023-03-01T08:46:55;1.70;;;0.68;;
48881;SDS011;57063;51.406;-2.402;2023-03-01T08:49:21;2.05;;;0.60;;
48881;SDS011;57063;51.406;-2.402;2023-03-01T08:51:47;1.80;;;0.75;;
48881;SDS011;57063;51.406;-2.402;2023-03-01T08:54:14;2.78;;;0.70;;
48881;SDS011;57063;51.406;-2.402;2023-03-01T08:56:41;1.25;;;0.50;;
48881;SDS011;57063;51.406;-2.402;2023-03-01T08:59:07;2.30;;;0.57;;
48881;SDS011;57063;51.406;-2.402;2023-03-01T09:01:33;1.95;;;0.65;;
48881;SDS011;57063;51.406;-2.402;2023-03-01T09:03:58;1.70;;;0.55;;
48881;SDS011;57063;51.406;-2.402;2023-03-01T09:06:24;2.80;;;0.57;;
48881;SDS011;57063;51.406;-2.402;2023-03-01T09:08:50;0.93;;;0.45;;
48881;SDS011;57063;51.406;-2.402;2023-03-01T09:11:17;1.92;;;0.30;;
48881;SDS011;57063;51.406;-2.402;2023-03-01T09:13:46;1.23;;;0.40;;
48881;SDS011;57063;51.406;-2.402;2023-03-01T09:16:13;0.63;;;0.38;;
48881;SDS011;57063;51.406;-2.402;2023-03-01T09:18:40;1.88;;;0.50;;
48881;SDS011;57063;51.406;-2.402;2023-03-01T09:21:07;1.13;;;0.50;;
48881;SDS011;57063;51.406;-2.402;2023-03-01T09:27:31;1.92;;;0.30;;
48881;SDS011;57063;51.406;-2.402;2023-03-01T09:29:59;1.45;;;0.45;;
48881;SDS011;57063;51.406;-2.402;2023-03-01T09:32:43;0.30;;;0.30;;
48881;SDS011;57063;51.406;-2.402;2023-03-01T09:35:10;0.57;;;0.35;;
48881;SDS011;57063;51.406;-2.402;2023-03-01T09:37:36;3.22;;;0.50;;
48881;SDS011;57063;51.406;-2.402;2023-03-01T09:40:04;3.97;;;0.50;;
48881;SDS011;57063;51.406;-2.402;2023-03-01T09:42:54;0.52;;;0.40;;
48881;SDS011;57063;51.406;-2.402;2023-03-01T09:45:41;1.73;;;0.40;;
48881;SDS011;57063;51.406;-2.402;2023-03-01T09:48:13;0.88;;;0.20;;
48881;SDS011;57063;51.406;-2.402;2023-03-01T09:50:57;0.50;;;0.20;;
48881;SDS011;57063;51.406;-2.402;2023-03-01T10:01:52;1.73;;;0.32;;
48881;SDS011;57063;51.406;-2.402;2023-03-01T10:09:51;0.80;;;0.20;;
48881;SDS011;57063;51.406;-2.402;2023-03-01T10:12:21;1.45;;;0.30;;
48881;SDS011;57063;51.406;-2.402;2023-03-01T10:17:55;0.50;;;0.20;;
48881;SDS011;57063;51.406;-2.402;2023-03-01T10:20:24;1.63;;;0.40;;
48881;SDS011;57063;51.406;-2.402;2023-03-01T10:22:55;0.95;;;0.20;;
48881;SDS011;57063;51.406;-2.402;2023-03-01T10:25:24;4.32;;;0.40;;
48881;SDS011;57063;51.406;-2.402;2023-03-01T10:27:52;0.20;;;0.15;;
48881;SDS011;57063;51.406;-2.402;2023-03-01T10:32:59;0.60;;;0.20;;
48881;SDS011;57063;51.406;-2.402;2023-03-01T10:35:27;2.17;;;0.22;;
48881;SDS011;57063;51.406;-2.402;2023-03-01T10:38:05;1.27;;;0.40;;
48881;SDS011;57063;51.406;-2.402;2023-03-01T10:40:36;1.23;;;0.30;;
48881;SDS011;57063;51.406;-2.402;2023-03-01T10:43:27;1.33;;;0.35;;
48881;SDS011;57063;51.406;-2.402;2023-03-01T10:46:10;3.15;;;1.38;;
48881;SDS011;57063;51.406;-2.402;2023-03-01T10:48:50;2.72;;;0.68;;
48881;SDS011;57063;51.406;-2.402;2023-03-01T10:51:40;1.55;;;0.60;;
48881;SDS011;57063;51.406;-2.402;2023-03-01T10:54:28;0.63;;;0.30;;
48881;SDS011;57063;51.406;-2.402;2023-03-01T10:56:57;3.00;;;1.30;;
48881;SDS011;57063;51.406;-2.402;2023-03-01T10:59:37;3.60;;;0.73;;
48881;SDS011;57063;51.406;-2.402;2023-03-01T11:02:23;2.63;;;1.20;;
48881;SDS011;57063;51.406;-2.402;2023-03-01T11:07:47;1.33;;;0.60;;
48881;SDS011;57063;51.406;-2.402;2023-03-01T11:21:08;1.05;;;0.40;;
48881;SDS011;57063;51.406;-2.402;2023-03-01T11:23:44;0.73;;;0.30;;
48881;SDS011;57063;51.406;-2.402;2023-03-01T11:29:38;0.38;;;0.17;;
48881;SDS011;57063;51.406;-2.402;2023-03-01T11:32:28;1.17;;;0.25;;
48881;SDS011;57063;51.406;-2.402;2023-03-01T11:35:15;0.70;;;0.20;;
48881;SDS011;57063;51.406;-2.402;2023-03-01T12:11:20;1.63;;;0.50;;
48881;SDS011;57063;51.406;-2.402;2023-03-01T12:17:26;0.85;;;0.68;;
48881;SDS011;57063;51.406;-2.402;2023-03-01T12:23:12;1.77;;;1.17;;
48881;SDS011;57063;51.406;-2.402;2023-03-01T12:34:24;1.60;;;1.40;;
48881;SDS011;57063;51.406;-2.402;2023-03-01T12:37:47;3.55;;;1.58;;
48881;SDS011;57063;51.406;-2.402;2023-03-01T12:51:09;3.80;;;1.70;;
48881;SDS011;57063;51.406;-2.402;2023-03-01T13:07:01;2.83;;;1.60;;
48881;SDS011;57063;51.406;-2.402;2023-03-01T13:15:46;1.80;;;1.27;;
48881;SDS011;57063;51.406;-2.402;2023-03-01T13:23:09;2.15;;;1.27;;
48881;SDS011;57063;51.406;-2.402;2023-03-01T13:26:02;3.45;;;1.38;;
48881;SDS011;57063;51.406;-2.402;2023-03-01T13:28:39;2.42;;;1.40;;
48881;SDS011;57063;51.406;-2.402;2023-03-01T13:33:42;5.47;;;1.42;;
48881;SDS011;57063;51.406;-2.402;2023-03-01T13:36:44;1.98;;;1.50;;
48881;SDS011;57063;51.406;-2.402;2023-03-01T13:49:53;1.67;;;1.17;;
48881;SDS011;57063;51.406;-2.402;2023-03-01T13:55:14;4.78;;;1.40;;
48881;SDS011;57063;51.406;-2.402;2023-03-01T13:57:42;1.92;;;1.13;;
48881;SDS011;57063;51.406;-2.402;2023-03-01T14:03:14;2.90;;;1.58;;
48881;SDS011;57063;51.406;-2.402;2023-03-01T14:06:04;2.65;;;1.50;;
48881;SDS011;57063;51.406;-2.402;2023-03-01T14:08:33;5.55;;;1.52;;
48881;SDS011;57063;51.406;-2.402;2023-03-01T14:11:23;3.38;;;2.20;;
48881;SDS011;57063;51.406;-2.402;2023-03-01T14:17:00;1.27;;;0.80;;
48881;SDS011;57063;51.406;-2.402;2023-03-01T14:19:47;1.85;;;1.10;;
48881;SDS011;57063;51.406;-2.402;2023-03-01T14:22:23;5.10;;;1.65;;
48881;SDS011;57063;51.406;-2.402;2023-03-01T14:24:56;1.42;;;1.15;;
48881;SDS011;57063;51.406;-2.402;2023-03-01T14:27:43;2.63;;;1.23;;
48881;SDS011;57063;51.406;-2.402;2023-03-01T14:30:26;5.00;;;1.20;;
48881;SDS011;57063;51.406;-2.402;2023-03-01T14:32:57;2.28;;;1.42;;
48881;SDS011;57063;51.406;-2.402;2023-03-01T14:35:28;1.83;;;1.35;;
48881;SDS011;57063;51.406;-2.402;2023-03-01T14:38:03;1.30;;;1.20;;
48881;SDS011;57063;51.406;-2.402;2023-03-01T14:40:41;1.30;;;1.20;;
48881;SDS011;57063;51.406;-2.402;2023-03-01T14:43:18;2.45;;;1.05;;
48881;SDS011;57063;51.406;-2.402;2023-03-01T14:45:52;2.03;;;1.10;;
48881;SDS011;57063;51.406;-2.402;2023-03-01T14:48:23;1.38;;;0.88;;
48881;SDS011;57063;51.406;-2.402;2023-03-01T14:50:54;2.67;;;1.25;;
48881;SDS011;57063;51.406;-2.402;2023-03-01T14:53:24;1.95;;;1.15;;
48881;SDS011;57063;51.406;-2.402;2023-03-01T14:55:54;2.30;;;0.98;;
48881;SDS011;57063;51.406;-2.402;2023-03-01T14:58:23;5.15;;;2.42;;
48881;SDS011;57063;51.406;-2.402;2023-03-01T15:06:09;2.50;;;1.17;;
48881;SDS011;57063;51.406;-2.402;2023-03-01T15:08:37;7.55;;;1.48;;
48881;SDS011;57063;51.406;-2.402;2023-03-01T15:13:42;1.83;;;1.20;;
48881;SDS011;57063;51.406;-2.402;2023-03-01T15:16:24;4.68;;;1.20;;
48881;SDS011;57063;51.406;-2.402;2023-03-01T15:19:02;2.40;;;1.40;;
48881;SDS011;57063;51.406;-2.402;2023-03-01T15:21:33;4.47;;;1.50;;
48881;SDS011;57063;51.406;-2.402;2023-03-01T15:26:52;4.95;;;1.25;;
48881;SDS011;57063;51.406;-2.402;2023-03-01T15:29:26;2.13;;;1.00;;
48881;SDS011;57063;51.406;-2.402;2023-03-01T15:34:33;2.55;;;1.60;;
48881;SDS011;57063;51.406;-2.402;2023-03-01T15:37:02;2.38;;;1.48;;
48881;SDS011;57063;51.406;-2.402;2023-03-01T15:39:40;4.45;;;1.98;;
48881;SDS011;57063;51.406;-2.402;2023-03-01T15:42:35;4.28;;;1.50;;
48881;SDS011;57063;51.406;-2.402;2023-03-01T15:47:34;3.50;;;1.25;;
48881;SDS011;57063;51.406;-2.402;2023-03-01T15:50:03;4.95;;;1.10;;
48881;SDS011;57063;51.406;-2.402;2023-03-01T15:52:39;1.13;;;0.90;;
48881;SDS011;57063;51.406;-2.402;2023-03-01T15:55:12;3.22;;;1.17;;
48881;SDS011;57063;51.406;-2.402;2023-03-01T15:57:42;2.70;;;1.02;;
48881;SDS011;57063;51.406;-2.402;2023-03-01T16:00:12;3.60;;;1.17;;
48881;SDS011;57063;51.406;-2.402;2023-03-01T16:02:38;1.25;;;0.80;;
48881;SDS011;57063;51.406;-2.402;2023-03-01T16:05:05;5.03;;;2.08;;
48881;SDS011;57063;51.406;-2.402;2023-03-01T16:07:40;1.52;;;1.00;;
48881;SDS011;57063;51.406;-2.402;2023-03-01T16:10:05;1.98;;;1.23;;
48881;SDS011;57063;51.406;-2.402;2023-03-01T16:12:31;4.55;;;1.52;;
48881;SDS011;57063;51.406;-2.402;2023-03-01T16:14:56;4.68;;;1.33;;
48881;SDS011;57063;51.406;-2.402;2023-03-01T16:17:22;2.22;;;1.38;;
48881;SDS011;57063;51.406;-2.402;2023-03-01T16:19:48;3.85;;;1.58;;
48881;SDS011;57063;51.406;-2.402;2023-03-01T16:22:13;4.93;;;1.40;;
48881;SDS011;57063;51.406;-2.402;2023-03-01T16:24:39;4.18;;;1.85;;
48881;SDS011;57063;51.406;-2.402;2023-03-01T16:27:06;7.53;;;2.72;;
48881;SDS011;57063;51.406;-2.402;2023-03-01T16:29:32;4.40;;;1.58;;
48881;SDS011;57063;51.406;-2.402;2023-03-01T16:32:00;4.20;;;1.90;;
48881;SDS011;57063;51.406;-2.402;2023-03-01T16:34:26;3.90;;;1.70;;
48881;SDS011;57063;51.406;-2.402;2023-03-01T16:36:52;2.45;;;1.65;;
48881;SDS011;57063;51.406;-2.402;2023-03-01T16:39:17;3.60;;;2.25;;
48881;SDS011;57063;51.406;-2.402;2023-03-01T16:41:43;2.83;;;1.90;;
48881;SDS011;57063;51.406;-2.402;2023-03-01T16:44:08;4.38;;;1.80;;
48881;SDS011;57063;51.406;-2.402;2023-03-01T16:46:34;5.32;;;2.10;;
48881;SDS011;57063;51.406;-2.402;2023-03-01T16:49:00;4.82;;;2.13;;
48881;SDS011;57063;51.406;-2.402;2023-03-01T16:51:26;3.90;;;1.98;;
48881;SDS011;57063;51.406;-2.402;2023-03-01T16:53:52;3.88;;;1.60;;
48881;SDS011;57063;51.406;-2.402;2023-03-01T16:56:18;2.25;;;1.17;;
48881;SDS011;57063;51.406;-2.402;2023-03-01T16:58:44;2.55;;;1.48;;
48881;SDS011;57063;51.406;-2.402;2023-03-01T17:01:11;2.92;;;0.90;;
48881;SDS011;57063;51.406;-2.402;2023-03-01T17:03:40;1.00;;;0.90;;
48881;SDS011;57063;51.406;-2.402;2023-03-01T17:06:09;3.05;;;0.82;;
48881;SDS011;57063;51.406;-2.402;2023-03-01T17:08:37;2.85;;;0.80;;
48881;SDS011;57063;51.406;-2.402;2023-03-01T17:11:09;3.47;;;1.00;;
48881;SDS011;57063;51.406;-2.402;2023-03-01T17:13:41;2.50;;;0.88;;
48881;SDS011;57063;51.406;-2.402;2023-03-01T17:16:08;1.90;;;1.00;;
48881;SDS011;57063;51.406;-2.402;2023-03-01T17:18:35;4.70;;;1.38;;
48881;SDS011;57063;51.406;-2.402;2023-03-01T17:21:02;2.42;;;1.10;;
48881;SDS011;57063;51.406;-2.402;2023-03-01T17:23:29;2.65;;;1.38;;
48881;SDS011;57063;51.406;-2.402;2023-03-01T17:25:55;2.55;;;1.50;;
48881;SDS011;57063;51.406;-2.402;2023-03-01T17:28:24;3.83;;;1.60;;
48881;SDS011;57063;51.406;-2.402;2023-03-01T17:30:52;4.18;;;2.00;;
48881;SDS011;57063;51.406;-2.402;2023-03-01T17:33:18;4.07;;;1.42;;
48881;SDS011;57063;51.406;-2.402;2023-03-01T17:35:43;2.95;;;1.95;;
48881;SDS011;57063;51.406;-2.402;2023-03-01T17:38:11;2.38;;;1.83;;
48881;SDS011;57063;51.406;-2.402;2023-03-01T17:40:40;5.35;;;1.95;;
48881;SDS011;57063;51.406;-2.402;2023-03-01T17:43:07;3.35;;;1.52;;
48881;SDS011;57063;51.406;-2.402;2023-03-01T17:45:35;7.40;;;2.00;;
48881;SDS011;57063;51.406;-2.402;2023-03-01T17:48:02;5.38;;;1.95;;
48881;SDS011;57063;51.406;-2.402;2023-03-01T17:50:28;6.13;;;1.90;;
48881;SDS011;57063;51.406;-2.402;2023-03-01T17:52:54;5.30;;;1.40;;
48881;SDS011;57063;51.406;-2.402;2023-03-01T17:55:22;2.55;;;1.15;;
48881;SDS011;57063;51.406;-2.402;2023-03-01T17:57:48;3.10;;;1.38;;
48881;SDS011;57063;51.406;-2.402;2023-03-01T18:00:14;5.20;;;1.23;;
48881;SDS011;57063;51.406;-2.402;2023-03-01T18:02:41;3.05;;;1.38;;
48881;SDS011;57063;51.406;-2.402;2023-03-01T18:07:52;2.53;;;1.40;;
48881;SDS011;57063;51.406;-2.402;2023-03-01T18:17:09;1.92;;;1.52;;
48881;SDS011;57063;51.406;-2.402;2023-03-01T18:19:37;3.30;;;1.77;;
48881;SDS011;57063;51.406;-2.402;2023-03-01T18:22:08;2.95;;;2.03;;
48881;SDS011;57063;51.406;-2.402;2023-03-01T18:24:34;4.47;;;1.35;;
48881;SDS011;57063;51.406;-2.402;2023-03-01T18:27:01;6.15;;;1.80;;
48881;SDS011;57063;51.406;-2.402;2023-03-01T18:29:26;4.10;;;1.48;;
48881;SDS011;57063;51.406;-2.402;2023-03-01T18:31:52;7.40;;;1.88;;
48881;SDS011;57063;51.406;-2.402;2023-03-01T18:34:20;6.47;;;2.60;;
48881;SDS011;57063;51.406;-2.402;2023-03-01T18:37:02;5.25;;;2.10;;
48881;SDS011;57063;51.406;-2.402;2023-03-01T18:39:34;5.60;;;1.90;;
48881;SDS011;57063;51.406;-2.402;2023-03-01T18:42:17;5.95;;;1.95;;
48881;SDS011;57063;51.406;-2.402;2023-03-01T18:44:47;3.92;;;1.55;;
48881;SDS011;57063;51.406;-2.402;2023-03-01T18:47:18;4.30;;;1.47;;
48881;SDS011;57063;51.406;-2.402;2023-03-01T18:50:04;4.57;;;1.40;;
48881;SDS011;57063;51.406;-2.402;2023-03-01T18:52:30;4.60;;;1.63;;
48881;SDS011;57063;51.406;-2.402;2023-03-01T18:54:59;5.85;;;1.75;;
48881;SDS011;57063;51.406;-2.402;2023-03-01T18:57:25;5.43;;;1.90;;
48881;SDS011;57063;51.406;-2.402;2023-03-01T19:00:39;4.00;;;1.83;;
48881;SDS011;57063;51.406;-2.402;2023-03-01T19:03:08;4.97;;;1.33;;
48881;SDS011;57063;51.406;-2.402;2023-03-01T19:13:53;9.25;;;1.70;;
48881;SDS011;57063;51.406;-2.402;2023-03-01T19:16:23;3.30;;;1.70;;
48881;SDS011;57063;51.406;-2.402;2023-03-01T19:19:00;4.45;;;1.95;;
48881;SDS011;57063;51.406;-2.402;2023-03-01T19:21:43;12.60;;;3.13;;
48881;SDS011;57063;51.406;-2.402;2023-03-01T19:24:25;10.30;;;3.65;;
48881;SDS011;57063;51.406;-2.402;2023-03-01T19:40:00;8.07;;;2.88;;
48881;SDS011;57063;51.406;-2.402;2023-03-01T19:42:47;5.55;;;3.03;;
48881;SDS011;57063;51.406;-2.402;2023-03-01T19:45:13;4.30;;;1.70;;
48881;SDS011;57063;51.406;-2.402;2023-03-01T19:47:39;7.68;;;2.65;;
48881;SDS011;57063;51.406;-2.402;2023-03-01T19:50:05;5.55;;;2.03;;
48881;SDS011;57063;51.406;-2.402;2023-03-01T19:52:32;6.60;;;2.83;;
48881;SDS011;57063;51.406;-2.402;2023-03-01T19:55:04;6.20;;;2.45;;
48881;SDS011;57063;51.406;-2.402;2023-03-01T19:57:33;8.60;;;2.13;;
48881;SDS011;57063;51.406;-2.402;2023-03-01T19:59:59;4.15;;;2.10;;
48881;SDS011;57063;51.406;-2.402;2023-03-01T20:02:29;6.93;;;2.58;;
48881;SDS011;57063;51.406;-2.402;2023-03-01T20:12:50;5.53;;;1.98;;
48881;SDS011;57063;51.406;-2.402;2023-03-01T20:15:47;3.92;;;2.10;;
48881;SDS011;57063;51.406;-2.402;2023-03-01T20:18:28;2.53;;;1.92;;
48881;SDS011;57063;51.406;-2.402;2023-03-01T20:21:15;4.90;;;2.08;;
48881;SDS011;57063;51.406;-2.402;2023-03-01T20:23:54;8.77;;;2.10;;
48881;SDS011;57063;51.406;-2.402;2023-03-01T20:26:56;5.55;;;2.22;;
48881;SDS011;57063;51.406;-2.402;2023-03-01T20:29:25;8.02;;;2.22;;
48881;SDS011;57063;51.406;-2.402;2023-03-01T20:32:03;7.93;;;2.00;;
48881;SDS011;57063;51.406;-2.402;2023-03-01T20:34:38;2.28;;;1.40;;
48881;SDS011;57063;51.406;-2.402;2023-03-01T20:37:20;6.50;;;1.67;;
48881;SDS011;57063;51.406;-2.402;2023-03-01T20:39:49;6.60;;;2.72;;
48881;SDS011;57063;51.406;-2.402;2023-03-01T20:42:15;5.70;;;1.95;;
48881;SDS011;57063;51.406;-2.402;2023-03-01T20:44:43;5.72;;;1.90;;
48881;SDS011;57063;51.406;-2.402;2023-03-01T20:50:13;7.60;;;2.10;;
48881;SDS011;57063;51.406;-2.402;2023-03-01T23:29:37;4.50;;;2.05;;
